createdAt,value
2023-02-18T00:01:12.947Z,150703.28
2023-02-18T00:03:40.280Z,150704.59
2023-02-18T00:06:29.510Z,150703.28
2023-02-18T00:08:56.527Z,150707.09
2023-02-18T00:11:22.749Z,150690.69
2023-02-18T00:13:53.599Z,150699.50
2023-02-18T00:16:19.643Z,150713.41
2023-02-18T00:18:45.424Z,150719.69
2023-02-18T00:21:11.459Z,150714.66
2023-02-18T00:23:37.287Z,150698.25
2023-02-18T00:26:07.306Z,150707.09
2023-02-18T00:28:33.690Z,150691.94
2023-02-18T00:31:05.465Z,150702.03
2023-02-18T00:33:31.345Z,150700.75
2023-02-18T00:36:06.357Z,150709.63
2023-02-18T00:38:32.603Z,150731.09
2023-02-18T00:40:59.130Z,150695.72
2023-02-18T00:43:25.353Z,150723.53
2023-02-18T00:45:51.225Z,150710.88
2023-02-18T00:48:17.016Z,150676.78
2023-02-18T00:50:42.993Z,150693.19
2023-02-18T00:53:08.770Z,150689.41
2023-02-18T00:55:47.128Z,150695.72
2023-02-18T00:58:13.761Z,150703.28
2023-02-18T01:00:40.064Z,150676.78
2023-02-18T01:03:09.576Z,150695.72
2023-02-18T01:05:37.149Z,150691.94
2023-02-18T01:08:04.003Z,150704.59
2023-02-18T01:10:30.215Z,150699.50
2023-02-18T01:12:56.178Z,150702.03
2023-02-18T01:15:22.452Z,150731.09
2023-02-18T01:17:48.438Z,150727.31
2023-02-18T01:20:14.975Z,150705.84
2023-02-18T01:22:41.228Z,150727.31
2023-02-18T01:25:08.189Z,150709.63
2023-02-18T01:27:34.145Z,150712.16
2023-02-18T01:29:59.949Z,150710.88
2023-02-18T01:32:26.019Z,150696.97
2023-02-18T01:34:51.795Z,150708.38
2023-02-18T01:37:17.565Z,150717.19
2023-02-18T01:39:43.393Z,150736.13
2023-02-18T01:42:21.468Z,150729.81
2023-02-18T01:44:48.749Z,150708.38
2023-02-18T01:47:15.970Z,150704.59
2023-02-18T01:49:45.371Z,150728.56
2023-02-18T01:52:31.703Z,150722.28
2023-02-18T01:54:59.105Z,150722.28
2023-02-18T01:57:32.082Z,150742.47
2023-02-18T02:00:14.352Z,150746.25
2023-02-18T02:02:44.726Z,150699.50
2023-02-18T02:05:12.088Z,150703.28
2023-02-18T02:07:40.317Z,150700.75
2023-02-18T02:10:07.273Z,150699.50
2023-02-18T02:12:48.357Z,150705.84
2023-02-18T02:15:17.240Z,150733.59
2023-02-18T02:17:48.798Z,150693.19
2023-02-18T02:20:32.635Z,150680.56
2023-02-18T02:23:26.202Z,150700.75
2023-02-18T02:26:29.486Z,150707.09
2023-02-18T02:29:10.408Z,150679.28
2023-02-18T02:32:09.806Z,150659.09
2023-02-18T02:34:56.637Z,150659.09
2023-02-18T02:37:27.918Z,150670.47
2023-02-18T02:39:56.673Z,150690.69
2023-02-18T02:42:35.639Z,150652.78
2023-02-18T02:45:12.228Z,150688.16
2023-02-18T02:47:56.009Z,150650.28
2023-02-18T02:50:48.019Z,150674.25
2023-02-18T02:53:22.500Z,150678.03
2023-02-18T02:55:48.410Z,150662.88
2023-02-18T02:58:16.668Z,150662.88
2023-02-18T03:01:07.470Z,150669.22
2023-02-18T03:04:11.604Z,150680.56
2023-02-18T03:06:56.970Z,150673.00
2023-02-18T03:09:46.241Z,150681.81
2023-02-18T03:12:22.837Z,150670.47
2023-02-18T03:15:14.272Z,150664.13
2023-02-18T03:17:51.104Z,150688.16
2023-02-18T03:20:24.760Z,150683.06
2023-02-18T03:22:53.633Z,150690.69
2023-02-18T03:25:20.883Z,150683.06
2023-02-18T03:27:52.792Z,150669.22
2023-02-18T03:30:37.542Z,150657.84
2023-02-18T03:33:06.921Z,150704.59
2023-02-18T03:35:34.910Z,150696.97
2023-02-18T03:38:08.931Z,150686.91
2023-02-18T03:40:34.843Z,150709.63
2023-02-18T03:43:01.080Z,150686.91
2023-02-18T03:45:27.133Z,150695.72
2023-02-18T03:47:52.979Z,150719.69
2023-02-18T03:50:19.357Z,150714.66
2023-02-18T03:52:45.221Z,150743.75
2023-02-18T03:55:11.093Z,150760.16
2023-02-18T03:57:37.038Z,150731.09
2023-02-18T04:00:06.220Z,150742.47
2023-02-18T04:02:32.761Z,150724.78
2023-02-18T04:04:58.604Z,150737.38
2023-02-18T04:07:24.488Z,150717.19
2023-02-18T04:09:50.300Z,150733.59
2023-02-18T04:12:16.200Z,150743.75
2023-02-18T04:14:42.163Z,150718.44
2023-02-18T04:17:08.015Z,150743.75
2023-02-18T04:19:33.815Z,150712.16
2023-02-18T04:21:59.588Z,150729.81
2023-02-18T04:24:25.424Z,150743.75
2023-02-18T04:26:51.240Z,150741.22
2023-02-18T04:29:17.107Z,150747.50
2023-02-18T04:31:42.953Z,150772.75
2023-02-18T04:34:08.807Z,150743.75
2023-02-18T04:36:34.610Z,150739.97
2023-02-18T04:39:00.457Z,150772.75
2023-02-18T04:41:26.302Z,150777.84
2023-02-18T04:43:52.081Z,150748.78
2023-02-18T04:46:17.977Z,150758.91
2023-02-18T04:48:43.883Z,150739.97
2023-02-18T04:51:09.653Z,150760.16
2023-02-18T04:53:35.488Z,150755.06
2023-02-18T04:56:01.646Z,150747.50
2023-02-18T04:58:27.566Z,150798.06
2023-02-18T05:00:53.382Z,150767.72
2023-02-18T05:03:19.429Z,150745.00
2023-02-18T05:05:45.220Z,150755.06
2023-02-18T05:08:11.708Z,150746.25
2023-02-18T05:10:38.461Z,150772.75
2023-02-18T05:13:04.511Z,150747.50
2023-02-18T05:15:30.439Z,150739.97
2023-02-18T05:17:56.278Z,150746.25
2023-02-18T05:20:22.087Z,150760.16
2023-02-18T05:22:47.919Z,150777.84
2023-02-18T05:25:13.696Z,150756.34
2023-02-18T05:27:39.486Z,150758.91
2023-02-18T05:30:05.913Z,150750.03
2023-02-18T05:32:31.715Z,150748.78
2023-02-18T05:34:57.558Z,150733.59
2023-02-18T05:37:23.393Z,150746.25
2023-02-18T05:39:49.192Z,150761.44
2023-02-18T05:42:15.035Z,150751.28
2023-02-18T05:44:40.783Z,150738.66
2023-02-18T05:47:11.442Z,150761.44
2023-02-18T05:49:39.696Z,150761.44
2023-02-18T05:52:06.102Z,150741.22
2023-02-18T05:54:32.764Z,150752.56
2023-02-18T05:56:58.623Z,150753.81
2023-02-18T05:59:24.463Z,150746.25
2023-02-18T06:01:50.260Z,150714.66
2023-02-18T06:04:16.530Z,150720.97
2023-02-18T06:06:42.587Z,150715.94
2023-02-18T06:09:09.733Z,150718.44
2023-02-18T06:11:35.986Z,150722.28
2023-02-18T06:14:02.743Z,150719.69
2023-02-18T06:16:28.902Z,150714.66
2023-02-18T06:18:54.776Z,150722.28
2023-02-18T06:21:20.643Z,150738.66
2023-02-18T06:23:46.818Z,150745.00
2023-02-18T06:26:12.682Z,150736.13
2023-02-18T06:28:38.485Z,150720.97
2023-02-18T06:31:04.574Z,150727.31
2023-02-18T06:33:30.444Z,150726.06
2023-02-18T06:36:02.433Z,150712.16
2023-02-18T06:38:28.537Z,150722.28
2023-02-18T06:40:54.763Z,150745.00
2023-02-18T06:43:21.339Z,150714.66
2023-02-18T06:45:47.451Z,150715.94
2023-02-18T06:48:13.485Z,150724.78
2023-02-18T06:50:42.944Z,150727.31
2023-02-18T06:53:09.032Z,150714.66
2023-02-18T06:55:34.909Z,150690.69
2023-02-18T06:58:00.698Z,150709.63
2023-02-18T07:00:26.668Z,150696.97
2023-02-18T07:02:52.626Z,150708.38
2023-02-18T07:05:18.466Z,150728.56
2023-02-18T07:07:44.617Z,150695.72
2023-02-18T07:10:10.734Z,150718.44
2023-02-18T07:12:36.568Z,150710.88
2023-02-18T07:15:02.800Z,150719.69
2023-02-18T07:17:29.441Z,150714.66
2023-02-18T07:19:55.556Z,150693.19
2023-02-18T07:22:22.101Z,150683.06
2023-02-18T07:24:51.963Z,150691.94
2023-02-18T07:27:18.465Z,150666.66
2023-02-18T07:29:44.439Z,150694.47
2023-02-18T07:32:15.047Z,150719.69
2023-02-18T07:34:40.900Z,150690.69
2023-02-18T07:37:08.692Z,150666.66
2023-02-18T07:39:35.776Z,150665.38
2023-02-18T07:42:03.189Z,150684.34
2023-02-18T07:44:29.970Z,150674.25
2023-02-18T07:46:56.048Z,150642.66
2023-02-18T07:49:22.256Z,150628.75
2023-02-18T07:51:49.042Z,150636.38
2023-02-18T07:54:15.456Z,150636.38
2023-02-18T07:56:42.458Z,150646.44
2023-02-18T07:59:08.511Z,150633.84
2023-02-18T08:01:34.459Z,150618.69
2023-02-18T08:04:00.306Z,150617.44
2023-02-18T08:06:32.596Z,150628.75
2023-02-18T08:08:58.355Z,150608.56
2023-02-18T08:11:24.853Z,150622.47
2023-02-18T08:13:50.706Z,150635.13
2023-02-18T08:16:19.447Z,150642.66
2023-02-18T08:18:47.158Z,150623.72
2023-02-18T08:21:13.832Z,150588.38
2023-02-18T08:23:40.125Z,150593.41
2023-02-18T08:26:07.096Z,150613.59
2023-02-18T08:28:33.170Z,150590.88
2023-02-18T08:30:59.114Z,150598.50
2023-02-18T08:33:25.298Z,150627.50
2023-02-18T08:35:53.312Z,150587.13
2023-02-18T08:38:20.302Z,150564.41
2023-02-18T08:40:46.878Z,150555.53
2023-02-18T08:43:13.997Z,150594.66
2023-02-18T08:45:41.006Z,150560.63
2023-02-18T08:48:16.818Z,150569.44
2023-02-18T08:50:46.227Z,150593.41
2023-02-18T08:53:12.079Z,150553.00
2023-02-18T08:55:39.938Z,150559.31
2023-02-18T08:58:06.136Z,150577.00
2023-02-18T09:00:32.557Z,150592.16
2023-02-18T09:02:58.568Z,150560.63
2023-02-18T09:05:24.630Z,150549.25
2023-02-18T09:07:50.455Z,150517.66
2023-02-18T09:10:16.422Z,150507.59
2023-02-18T09:12:42.231Z,150553.00
2023-02-18T09:15:08.400Z,150551.75
2023-02-18T09:17:34.421Z,150531.56
2023-02-18T09:20:00.746Z,150539.13
2023-02-18T09:22:26.638Z,150503.75
2023-02-18T09:24:52.504Z,150536.59
2023-02-18T09:27:18.354Z,150513.88
2023-02-18T09:29:44.389Z,150477.28
2023-02-18T09:32:12.336Z,150484.84
2023-02-18T09:34:39.050Z,150470.97
2023-02-18T09:37:04.884Z,150483.56
2023-02-18T09:39:30.713Z,150452.00
2023-02-18T09:42:03.769Z,150458.34
2023-02-18T09:44:33.608Z,150497.47
2023-02-18T09:47:01.735Z,150454.56
2023-02-18T09:49:50.259Z,150414.16
2023-02-18T09:52:23.092Z,150462.13
2023-02-18T09:54:50.131Z,150455.84
2023-02-18T09:57:28.220Z,150436.91
2023-02-18T10:00:00.822Z,150425.53
2023-02-18T10:02:27.727Z,150426.78
2023-02-18T10:04:56.060Z,150416.72
2023-02-18T10:07:31.775Z,150457.09
2023-02-18T10:10:03.010Z,150449.50
2023-02-18T10:12:32.435Z,150487.34
2023-02-18T10:15:00.612Z,150491.19
2023-02-18T10:17:31.683Z,150464.63
2023-02-18T10:19:59.517Z,150465.91
2023-02-18T10:22:27.352Z,150470.97
2023-02-18T10:25:01.845Z,150431.81
2023-02-18T10:27:30.862Z,150428.03
2023-02-18T10:30:09.376Z,150419.22
2023-02-18T10:32:40.428Z,150430.56
2023-02-18T10:35:20.766Z,150439.41
2023-02-18T10:38:07.656Z,150463.38
2023-02-18T10:40:52.444Z,150458.34
2023-02-18T10:43:30.630Z,150477.28
2023-02-18T10:46:17.442Z,150459.59
2023-02-18T10:49:09.099Z,150465.91
2023-02-18T10:51:39.380Z,150476.03
2023-02-18T10:54:06.453Z,150469.69
2023-02-18T10:56:38.462Z,150469.69
2023-02-18T10:59:11.357Z,150473.50
2023-02-18T11:01:38.827Z,150470.97
2023-02-18T11:04:15.990Z,150481.06
2023-02-18T11:06:47.538Z,150436.91
2023-02-18T11:09:27.992Z,150455.84
2023-02-18T11:12:08.726Z,150455.84
2023-02-18T11:14:47.162Z,150460.88
2023-02-18T11:17:20.341Z,150470.97
2023-02-18T11:19:55.444Z,150460.88
2023-02-18T11:22:28.908Z,150470.97
2023-02-18T11:24:57.285Z,150457.09
2023-02-18T11:27:27.876Z,150492.44
2023-02-18T11:30:06.846Z,150482.31
2023-02-18T11:32:35.621Z,150494.94
2023-02-18T11:35:03.273Z,150491.19
2023-02-18T11:37:32.425Z,150478.53
2023-02-18T11:39:58.614Z,150486.09
2023-02-18T11:42:26.226Z,150474.75
2023-02-18T11:44:55.706Z,150477.28
2023-02-18T11:47:26.720Z,150457.09
2023-02-18T11:50:16.145Z,150462.13
2023-02-18T11:52:50.600Z,150464.63
2023-02-18T11:55:18.443Z,150496.22
2023-02-18T11:58:06.420Z,150502.50
2023-02-18T12:00:47.312Z,150507.59
2023-02-18T12:03:43.960Z,150487.34
2023-02-18T12:06:24.036Z,150489.91
2023-02-18T12:09:19.955Z,150515.16
2023-02-18T12:12:00.298Z,150560.63
2023-02-18T12:14:26.852Z,150542.94
2023-02-18T12:17:11.290Z,150545.47
2023-02-18T12:19:59.485Z,150554.28
2023-02-18T12:22:25.200Z,150545.47
2023-02-18T12:25:11.997Z,150549.25
2023-02-18T12:27:47.971Z,150534.06
2023-02-18T12:30:42.520Z,150571.94
2023-02-18T12:33:42.604Z,150530.31
2023-02-18T12:36:26.746Z,150531.56
2023-02-18T12:39:02.183Z,150550.50
2023-02-18T12:41:46.827Z,150539.13
2023-02-18T12:44:45.506Z,150566.91
2023-02-18T12:47:51.224Z,150574.47
2023-02-18T12:50:22.982Z,150566.91
2023-02-18T12:53:17.870Z,150555.53
2023-02-18T12:56:11.049Z,150540.38
2023-02-18T12:59:09.377Z,150537.84
2023-02-18T13:02:02.920Z,150549.25
2023-02-18T13:04:51.958Z,150546.72
2023-02-18T13:07:42.283Z,150565.66
2023-02-18T13:10:21.158Z,150553.00
2023-02-18T13:12:56.842Z,150575.72
2023-02-18T13:15:40.128Z,150556.78
2023-02-18T13:18:12.854Z,150608.56
2023-02-18T13:21:05.719Z,150575.72
2023-02-18T13:23:37.024Z,150564.41
2023-02-18T13:26:06.992Z,150575.72
2023-02-18T13:28:35.761Z,150598.50
2023-02-18T13:31:07.529Z,150582.06
2023-02-18T13:33:42.576Z,150575.72
2023-02-18T13:36:17.517Z,150575.72
2023-02-18T13:39:21.601Z,150564.41
2023-02-18T13:41:49.552Z,150551.75
2023-02-18T13:44:21.722Z,150555.53
2023-02-18T13:46:58.316Z,150542.94
2023-02-18T13:49:30.731Z,150547.97
2023-02-18T13:51:59.110Z,150599.75
2023-02-18T13:54:28.868Z,150565.66
2023-02-18T13:57:16.468Z,150588.38
2023-02-18T13:59:49.898Z,150574.47
2023-02-18T14:02:18.755Z,150593.41
2023-02-18T14:04:44.457Z,150579.56
2023-02-18T14:07:28.330Z,150580.81
2023-02-18T14:09:59.891Z,150609.81
2023-02-18T14:13:19.543Z,150575.72
2023-02-18T14:15:59.484Z,150588.38
2023-02-18T14:18:36.651Z,150574.47
2023-02-18T14:21:13.165Z,150553.00
2023-02-18T14:23:38.955Z,150585.84
2023-02-18T14:26:14.226Z,150559.31
2023-02-18T14:29:04.728Z,150583.34
2023-02-18T14:31:45.382Z,150560.63
2023-02-18T14:34:23.246Z,150575.72
2023-02-18T14:37:09.943Z,150597.22
2023-02-18T14:40:05.710Z,150589.63
2023-02-18T14:42:52.643Z,150587.13
2023-02-18T14:45:41.346Z,150589.63
2023-02-18T14:48:10.113Z,150575.72
2023-02-18T14:50:41.037Z,150568.19
2023-02-18T14:53:27.655Z,150569.44
2023-02-18T14:55:59.263Z,150585.84
2023-02-18T14:58:36.346Z,150588.38
2023-02-18T15:01:22.364Z,150582.06
2023-02-18T15:03:48.876Z,150551.75
2023-02-18T15:06:36.481Z,150565.66
2023-02-18T15:09:14.564Z,150573.22
2023-02-18T15:11:55.667Z,150592.16
2023-02-18T15:14:26.354Z,150606.06
2023-02-18T15:16:52.990Z,150597.22
2023-02-18T15:19:23.193Z,150587.13
2023-02-18T15:21:51.058Z,150602.28
2023-02-18T15:24:37.325Z,150607.31
2023-02-18T15:27:17.241Z,150627.50
2023-02-18T15:29:43.046Z,150630.03
2023-02-18T15:32:21.121Z,150623.72
2023-02-18T15:34:56.935Z,150622.47
2023-02-18T15:37:22.837Z,150599.75
2023-02-18T15:39:49.267Z,150646.44
2023-02-18T15:42:23.191Z,150616.16
2023-02-18T15:44:54.728Z,150617.44
2023-02-18T15:47:21.914Z,150630.03
2023-02-18T15:49:58.145Z,150621.22
2023-02-18T15:52:27.882Z,150640.16
2023-02-18T15:54:54.771Z,150608.56
2023-02-18T15:57:27.444Z,150626.25
2023-02-18T16:00:24.627Z,150613.59
2023-02-18T16:03:11.780Z,150626.25
2023-02-18T16:05:41.501Z,150626.25
2023-02-18T16:08:16.101Z,150662.88
2023-02-18T16:10:44.301Z,150628.75
2023-02-18T16:13:15.512Z,150636.38
2023-02-18T16:15:44.463Z,150622.47
2023-02-18T16:18:34.448Z,150598.50
2023-02-18T16:21:23.030Z,150593.41
2023-02-18T16:24:00.950Z,150617.44
2023-02-18T16:26:37.539Z,150589.63
2023-02-18T16:29:25.540Z,150637.63
2023-02-18T16:31:52.192Z,150622.47
2023-02-18T16:34:19.353Z,150592.16
2023-02-18T16:37:04.049Z,150621.22
2023-02-18T16:39:34.100Z,150598.50
2023-02-18T16:42:00.256Z,150614.91
2023-02-18T16:44:26.086Z,150622.47
2023-02-18T16:46:52.054Z,150637.63
2023-02-18T16:49:19.796Z,150631.28
2023-02-18T16:51:48.030Z,150638.91
2023-02-18T16:54:14.272Z,150611.09
2023-02-18T16:56:40.054Z,150630.03
2023-02-18T16:59:06.507Z,150617.44
2023-02-18T17:01:40.601Z,150616.16
2023-02-18T17:04:10.237Z,150646.44
2023-02-18T17:06:36.122Z,150631.28
2023-02-18T17:09:05.665Z,150651.53
2023-02-18T17:11:34.550Z,150656.56
2023-02-18T17:14:04.135Z,150656.56
2023-02-18T17:16:30.308Z,150619.94
2023-02-18T17:18:56.306Z,150626.25
2023-02-18T17:21:23.836Z,150637.63
2023-02-18T17:23:50.686Z,150627.50
2023-02-18T17:26:23.812Z,150626.25
2023-02-18T17:28:51.034Z,150632.59
2023-02-18T17:31:20.556Z,150656.56
2023-02-18T17:33:46.865Z,150665.38
2023-02-18T17:36:13.075Z,150652.78
2023-02-18T17:38:39.621Z,150659.09
2023-02-18T17:41:06.410Z,150652.78
2023-02-18T17:43:32.751Z,150640.16
2023-02-18T17:45:59.421Z,150632.59
2023-02-18T17:48:26.368Z,150645.19
2023-02-18T17:50:52.855Z,150646.44
2023-02-18T17:53:19.126Z,150673.00
2023-02-18T17:55:46.915Z,150671.75
2023-02-18T17:58:13.747Z,150684.34
2023-02-18T18:00:43.617Z,150669.22
2023-02-18T18:03:12.140Z,150666.66
2023-02-18T18:05:40.158Z,150685.59
2023-02-18T18:08:07.654Z,150667.97
2023-02-18T18:10:37.034Z,150643.94
2023-02-18T18:13:08.631Z,150654.06
2023-02-18T18:15:42.239Z,150670.47
2023-02-18T18:18:10.230Z,150702.03
2023-02-18T18:20:37.004Z,150651.53
2023-02-18T18:23:06.006Z,150665.38
2023-02-18T18:25:44.006Z,150669.22
2023-02-18T18:28:10.557Z,150667.97
2023-02-18T18:30:39.055Z,150641.41
2023-02-18T18:33:21.670Z,150638.91
2023-02-18T18:35:51.029Z,150636.38
2023-02-18T18:38:18.218Z,150646.44
2023-02-18T18:40:45.270Z,150640.16
2023-02-18T18:43:25.703Z,150655.31
2023-02-18T18:45:53.291Z,150681.81
2023-02-18T18:48:20.170Z,150689.41
2023-02-18T18:50:46.997Z,150659.09
2023-02-18T18:53:18.684Z,150626.25
2023-02-18T18:55:45.061Z,150636.38
2023-02-18T18:58:11.050Z,150633.84
2023-02-18T19:00:40.896Z,150614.91
2023-02-18T19:03:09.501Z,150619.94
2023-02-18T19:05:38.454Z,150609.81
2023-02-18T19:08:05.783Z,150631.28
2023-02-18T19:10:34.992Z,150630.03
2023-02-18T19:13:11.459Z,150619.94
2023-02-18T19:15:37.950Z,150626.25
2023-02-18T19:18:04.232Z,150613.59
2023-02-18T19:20:32.527Z,150651.53
2023-02-18T19:22:58.975Z,150622.47
2023-02-18T19:25:25.373Z,150638.91
2023-02-18T19:27:51.895Z,150637.63
2023-02-18T19:30:23.554Z,150631.28
2023-02-18T19:32:51.850Z,150635.13
2023-02-18T19:35:17.987Z,150646.44
2023-02-18T19:37:43.784Z,150619.94
2023-02-18T19:40:13.763Z,150643.94
2023-02-18T19:42:40.212Z,150621.22
2023-02-18T19:45:06.340Z,150597.22
2023-02-18T19:47:32.655Z,150625.00
2023-02-18T19:49:59.992Z,150665.38
2023-02-18T19:52:27.070Z,150642.66
2023-02-18T19:54:54.036Z,150617.44
2023-02-18T19:57:20.959Z,150606.06
2023-02-18T19:59:47.017Z,150626.25
2023-02-18T20:02:15.916Z,150633.84
2023-02-18T20:04:42.556Z,150601.00
2023-02-18T20:07:09.783Z,150611.09
2023-02-18T20:09:35.764Z,150647.72
2023-02-18T20:12:02.399Z,150623.72
2023-02-18T20:14:28.890Z,150627.50
2023-02-18T20:16:57.296Z,150602.28
2023-02-18T20:19:24.884Z,150611.09
2023-02-18T20:21:51.327Z,150632.59
2023-02-18T20:24:17.772Z,150602.28
2023-02-18T20:26:44.007Z,150604.78
2023-02-18T20:29:09.908Z,150609.81
2023-02-18T20:31:36.351Z,150593.41
2023-02-18T20:34:02.486Z,150589.63
2023-02-18T20:36:28.462Z,150618.69
2023-02-18T20:38:54.406Z,150584.59
2023-02-18T20:41:21.554Z,150616.16
2023-02-18T20:43:48.100Z,150619.94
2023-02-18T20:46:21.104Z,150613.59
2023-02-18T20:48:47.518Z,150584.59
2023-02-18T20:51:16.134Z,150592.16
2023-02-18T20:53:43.454Z,150587.13
2023-02-18T20:56:09.953Z,150592.16
2023-02-18T20:58:36.061Z,150587.13
2023-02-18T21:01:05.235Z,150573.22
2023-02-18T21:03:31.779Z,150582.06
2023-02-18T21:06:08.628Z,150590.88
2023-02-18T21:08:35.702Z,150554.28
2023-02-18T21:11:06.923Z,150571.94
2023-02-18T21:13:33.279Z,150602.28
2023-02-18T21:15:59.507Z,150574.47
2023-02-18T21:18:25.471Z,150587.13
2023-02-18T21:20:51.301Z,150621.22
2023-02-18T21:23:19.567Z,150569.44
2023-02-18T21:25:45.385Z,150570.69
2023-02-18T21:28:11.176Z,150561.88
2023-02-18T21:30:39.505Z,150585.84
2023-02-18T21:33:06.116Z,150566.91
2023-02-18T21:35:36.089Z,150551.75
2023-02-18T21:38:02.380Z,150571.94
2023-02-18T21:40:28.770Z,150566.91
2023-02-18T21:42:54.729Z,150550.50
2023-02-18T21:45:20.845Z,150573.22
2023-02-18T21:47:46.735Z,150601.00
2023-02-18T21:50:15.537Z,150570.69
2023-02-18T21:52:42.509Z,150554.28
2023-02-18T21:55:09.987Z,150568.19
2023-02-18T21:57:35.842Z,150583.34
2023-02-18T22:00:14.741Z,150598.50
2023-02-18T22:02:45.283Z,150583.34
2023-02-18T22:05:11.084Z,150583.34
2023-02-18T22:07:36.950Z,150566.91
2023-02-18T22:10:02.865Z,150569.44
2023-02-18T22:12:31.265Z,150573.22
2023-02-18T22:14:57.084Z,150589.63
2023-02-18T22:17:22.951Z,150582.06
2023-02-18T22:19:48.869Z,150583.34
2023-02-18T22:22:14.701Z,150569.44
2023-02-18T22:24:40.533Z,150598.50
2023-02-18T22:27:06.344Z,150595.97
2023-02-18T22:29:32.507Z,150569.44
2023-02-18T22:31:58.954Z,150587.13
2023-02-18T22:34:24.920Z,150585.84
2023-02-18T22:36:50.766Z,150593.41
2023-02-18T22:39:16.657Z,150592.16
2023-02-18T22:41:42.620Z,150570.69
2023-02-18T22:44:13.226Z,150575.72
2023-02-18T22:46:39.226Z,150578.28
2023-02-18T22:49:06.594Z,150580.81
2023-02-18T22:51:37.435Z,150573.22
2023-02-18T22:54:05.248Z,150585.84
2023-02-18T22:56:31.281Z,150593.41
2023-02-18T22:58:58.490Z,150617.44
2023-02-18T23:01:28.822Z,150590.88
2023-02-18T23:03:57.247Z,150619.94
2023-02-18T23:06:23.785Z,150588.38
2023-02-18T23:08:49.921Z,150595.97
2023-02-18T23:11:19.091Z,150592.16
2023-02-18T23:14:05.737Z,150590.88
2023-02-18T23:16:31.990Z,150642.66
2023-02-18T23:18:58.662Z,150616.16
2023-02-18T23:21:24.508Z,150625.00
2023-02-18T23:23:53.323Z,150637.63
2023-02-18T23:26:24.884Z,150606.06
2023-02-18T23:28:52.294Z,150597.22
2023-02-18T23:31:25.949Z,150597.22
2023-02-18T23:33:57.392Z,150590.88
2023-02-18T23:36:26.696Z,150590.88
2023-02-18T23:38:58.286Z,150602.28
2023-02-18T23:41:25.023Z,150575.72
2023-02-18T23:43:51.058Z,150588.38
2023-02-18T23:46:19.412Z,150587.13
2023-02-18T23:48:45.408Z,150577.00
2023-02-18T23:51:17.694Z,150563.13
2023-02-18T23:53:44.335Z,150573.22
2023-02-18T23:56:13.186Z,150566.91
2023-02-18T23:58:40.978Z,150590.88
